Time;durP1;ratioP1;P1;durP2;ratioP2;P2;SDS_P1;SDS_P2;PMS_P1;PMS_P2;Temp;Humidity;BMP_temperature;BMP_pressure;BME280_temperature;BME280_humidity;BME280_pressure;Samples;Min_cycle;Max_cycle;Signal;HPM_P1;HPM_P2
2024/02/12 00:01:21;;;;;;;0.15;0.00;;;;;;;8.04;100.00;99020.72;4991966;28;20498;-67
2024/02/12 00:03:47;;;;;;;0.10;0.00;;;;;;;8.05;100.00;99018.94;4996188;28;20057;-66
2024/02/12 00:06:14;;;;;;;0.00;0.00;;;;;;;7.99;100.00;99023.81;5001075;28;20470;-66
2024/02/12 00:08:40;;;;;;;0.00;0.00;;;;;;;8.05;100.00;99021.53;4997961;28;20092;-67
2024/02/12 00:11:06;;;;;;;0.13;0.08;;;;;;;8.12;100.00;99022.50;5002382;28;20027;-67
2024/02/12 00:13:32;;;;;;;0.00;0.00;;;;;;;7.92;100.00;99022.03;4987664;28;20035;-66
2024/02/12 00:15:58;;;;;;;0.00;0.00;;;;;;;7.88;100.00;99034.53;4994371;28;20034;-66
2024/02/12 00:18:24;;;;;;;0.10;0.00;;;;;;;7.95;100.00;99030.31;4982069;28;20026;-66
2024/02/12 00:20:49;;;;;;;0.00;0.00;;;;;;;7.99;100.00;99025.59;4992633;28;20038;-66
2024/02/12 00:23:15;;;;;;;0.47;0.00;;;;;;;8.04;100.00;99027.69;4994923;28;20542;-66
2024/02/12 00:25:41;;;;;;;0.17;0.00;;;;;;;8.07;100.00;99022.19;4980601;28;20034;-67
2024/02/12 00:28:07;;;;;;;0.95;0.20;;;;;;;8.02;100.00;99025.28;4980320;28;20030;-66
2024/02/12 00:30:35;;;;;;;2.42;0.38;;;;;;;7.99;100.00;99025.59;4977847;28;20094;-66
2024/02/12 00:33:04;;;;;;;1.75;0.30;;;;;;;8.08;100.00;99023.78;4986972;28;20508;-66
2024/02/12 00:35:31;;;;;;;1.17;0.20;;;;;;;8.13;100.00;99035.31;4989763;28;20039;-66
2024/02/12 00:37:57;;;;;;;0.47;0.20;;;;;;;8.17;100.00;99028.81;4991808;28;20042;-66
2024/02/12 00:40:23;;;;;;;0.98;0.20;;;;;;;8.18;100.00;99048.59;4991040;28;20039;-66
2024/02/12 00:42:49;;;;;;;0.68;0.20;;;;;;;8.16;100.00;99041.94;4986448;28;20030;-66
2024/02/12 00:45:14;;;;;;;1.73;0.43;;;;;;;8.17;100.00;99044.38;4995956;28;20654;-66
2024/02/12 00:47:40;;;;;;;2.20;0.52;;;;;;;8.18;100.00;99046.00;4988827;28;20121;-66
2024/02/12 00:50:06;;;;;;;2.53;0.52;;;;;;;8.20;100.00;99051.03;4992119;28;20049;-66
2024/02/12 00:52:37;;;;;;;3.58;1.20;;;;;;;8.21;100.00;99058.66;4988654;28;20120;-67
2024/02/12 00:55:07;;;;;;;2.10;1.08;;;;;;;8.22;100.00;99062.06;4995889;28;20441;-66
2024/02/12 00:57:35;;;;;;;4.20;1.95;;;;;;;8.22;100.00;99067.25;4992761;28;20466;-66
2024/02/12 01:00:04;;;;;;;4.13;1.58;;;;;;;8.24;100.00;99071.31;5002871;28;20448;-66
2024/02/12 01:02:30;;;;;;;4.22;1.70;;;;;;;8.25;100.00;99072.91;4994083;28;20026;-66
2024/02/12 01:04:58;;;;;;;3.70;1.63;;;;;;;8.25;100.00;99072.09;4990742;28;20031;-66
2024/02/12 01:07:25;;;;;;;5.00;1.75;;;;;;;8.26;100.00;99078.91;4994664;28;20039;-66
2024/02/12 01:09:51;;;;;;;3.95;1.95;;;;;;;8.24;100.00;99078.28;4997335;28;20067;-67
2024/02/12 01:12:16;;;;;;;2.75;0.80;;;;;;;8.12;100.00;99088.16;4994543;28;20034;-66
2024/02/12 01:14:42;;;;;;;3.30;1.02;;;;;;;8.09;100.00;99078.09;4989913;28;20033;-66
2024/02/12 01:17:10;;;;;;;1.15;0.55;;;;;;;8.09;100.00;99082.47;4998961;28;20096;-66
2024/02/12 01:19:36;;;;;;;1.48;0.50;;;;;;;8.06;100.00;99082.81;4992167;28;20103;-66
2024/02/12 01:22:05;;;;;;;2.58;1.17;;;;;;;8.07;100.00;99082.66;4992558;28;20038;-66
2024/02/12 01:24:31;;;;;;;2.03;1.00;;;;;;;8.11;100.00;99086.53;5004062;28;20045;-66
2024/02/12 01:26:57;;;;;;;2.28;0.60;;;;;;;8.14;100.00;99086.22;4990798;28;20027;-66
2024/02/12 01:29:24;;;;;;;4.88;0.95;;;;;;;8.17;100.00;99092.88;4985345;28;20449;-66
2024/02/12 01:31:53;;;;;;;1.67;0.70;;;;;;;8.17;100.00;99101.47;4974882;28;20030;-66
2024/02/12 01:34:19;;;;;;;1.92;0.50;;;;;;;8.17;100.00;99096.28;4995221;28;20033;-66
2024/02/12 01:36:44;;;;;;;2.13;0.65;;;;;;;8.16;100.00;99092.06;4988365;28;20038;-66
2024/02/12 01:39:10;;;;;;;4.80;0.70;;;;;;;8.16;100.00;99094.66;4986010;28;20505;-66
2024/02/12 01:41:36;;;;;;;1.65;0.43;;;;;;;8.16;100.00;99104.22;4993358;28;20386;-66
2024/02/12 01:44:04;;;;;;;1.75;0.55;;;;;;;8.13;100.00;99102.75;4987792;28;20064;-66
2024/02/12 01:46:30;;;;;;;1.20;0.22;;;;;;;8.13;100.00;99094.97;4992416;28;20478;-66
2024/02/12 01:48:57;;;;;;;1.75;0.40;;;;;;;8.12;100.00;99106.31;4991659;28;20490;-66
2024/02/12 01:51:23;;;;;;;2.53;0.40;;;;;;;8.08;100.00;99105.03;4983633;28;20042;-65
2024/02/12 01:53:50;;;;;;;2.08;0.57;;;;;;;8.09;100.00;99104.03;4986152;28;20120;-66
2024/02/12 01:56:16;;;;;;;5.28;0.57;;;;;;;8.10;100.00;99110.03;4989498;28;20065;-66
2024/02/12 01:58:42;;;;;;;3.38;0.52;;;;;;;8.07;100.00;99103.41;4994307;28;20116;-66
2024/02/12 02:01:16;;;;;;;0.82;0.30;;;;;;;8.06;100.00;99104.38;4992232;28;20442;-66
2024/02/12 02:03:46;;;;;;;1.80;0.20;;;;;;;8.07;100.00;99105.19;4993660;28;20026;-66
2024/02/12 02:06:12;;;;;;;1.48;0.40;;;;;;;8.06;100.00;99113.94;4985588;28;20046;-65
2024/02/12 02:08:39;;;;;;;0.80;0.30;;;;;;;8.03;100.00;99115.09;5000019;28;20033;-65
2024/02/12 02:11:05;;;;;;;0.70;0.20;;;;;;;8.02;100.00;99116.06;4987686;28;20113;-66
2024/02/12 02:13:34;;;;;;;0.93;0.30;;;;;;;8.03;100.00;99119.47;4990967;28;21020;-66
2024/02/12 02:16:00;;;;;;;0.55;0.20;;;;;;;8.03;100.00;99117.69;4985103;28;20745;-66
2024/02/12 02:18:29;;;;;;;1.10;0.30;;;;;;;8.03;100.00;99127.25;4989183;28;20221;-66
2024/02/12 02:20:56;;;;;;;0.77;0.10;;;;;;;8.03;100.00;99129.84;4993713;28;20042;-66
2024/02/12 02:23:22;;;;;;;0.50;0.20;;;;;;;8.02;100.00;99126.44;4992510;28;20409;-66
2024/02/12 02:25:47;;;;;;;0.60;0.20;;;;;;;8.01;100.00;99127.41;4994276;28;20030;-66
2024/02/12 02:28:13;;;;;;;2.33;0.20;;;;;;;8.01;100.00;99135.19;4992114;28;20030;-66
2024/02/12 02:30:41;;;;;;;2.08;0.20;;;;;;;8.01;100.00;99137.78;4980724;28;20077;-66
2024/02/12 02:33:07;;;;;;;0.30;0.10;;;;;;;8.02;100.00;99138.59;4994714;28;20034;-66
2024/02/12 02:35:33;;;;;;;0.82;0.20;;;;;;;8.00;100.00;99146.53;4997683;28;20359;-66
2024/02/12 02:38:01;;;;;;;0.20;0.00;;;;;;;7.94;100.00;99136.81;4985498;28;20054;-66
2024/02/12 02:40:27;;;;;;;0.30;0.10;;;;;;;7.95;100.00;99143.59;4997003;28;20055;-66
2024/02/12 02:42:52;;;;;;;1.98;0.15;;;;;;;7.84;100.00;99141.31;4990739;28;20484;-66
2024/02/12 02:45:18;;;;;;;0.73;0.10;;;;;;;7.81;100.00;99152.00;4996847;28;20125;-66
2024/02/12 02:47:44;;;;;;;0.82;0.10;;;;;;;7.80;100.00;99140.00;4984464;28;20038;-66
2024/02/12 02:50:10;;;;;;;0.77;0.10;;;;;;;7.79;100.00;99144.38;4978812;28;20121;-66
2024/02/12 02:52:39;;;;;;;0.75;0.10;;;;;;;7.70;100.00;99152.28;4983995;28;20050;-66
2024/02/12 02:55:06;;;;;;;0.22;0.08;;;;;;;7.61;100.00;99152.25;4987381;28;20063;-65
2024/02/12 02:57:33;;;;;;;0.30;0.10;;;;;;;7.60;100.00;99152.41;4977462;28;20125;-66
2024/02/12 02:59:59;;;;;;;0.20;0.00;;;;;;;7.65;100.00;99148.38;4994766;28;20459;-65
2024/02/12 03:02:24;;;;;;;0.60;0.08;;;;;;;7.70;100.00;99145.31;4983390;28;20027;-65
2024/02/12 03:04:50;;;;;;;3.67;0.10;;;;;;;7.75;100.00;99150.03;5002318;28;20040;-65
2024/02/12 03:07:16;;;;;;;2.38;0.00;;;;;;;7.69;100.00;99153.25;4988397;28;20039;-65
2024/02/12 03:09:41;;;;;;;0.93;0.10;;;;;;;7.63;100.00;99147.72;4990119;28;20401;-65
2024/02/12 03:12:07;;;;;;;0.20;0.10;;;;;;;7.59;100.00;99151.59;4986538;28;20033;-65
2024/02/12 03:14:33;;;;;;;1.35;0.05;;;;;;;7.56;100.00;99157.09;4991454;28;20065;-65
2024/02/12 03:16:58;;;;;;;0.13;0.00;;;;;;;7.56;100.00;99159.69;4993549;28;20132;-65
2024/02/12 03:19:24;;;;;;;0.65;0.00;;;;;;;7.55;100.00;99150.31;4990267;28;20112;-66
2024/02/12 03:21:49;;;;;;;1.35;0.00;;;;;;;7.57;100.00;99153.53;4988733;28;20031;-65
2024/02/12 03:24:16;;;;;;;0.28;0.10;;;;;;;7.56;100.00;99154.50;4992361;28;20037;-66
2024/02/12 03:26:42;;;;;;;0.43;0.00;;;;;;;7.60;100.00;99155.00;4988636;28;20047;-66
2024/02/12 03:29:07;;;;;;;0.20;0.00;;;;;;;7.57;100.00;99153.53;4992338;28;20486;-65
2024/02/12 03:31:33;;;;;;;0.40;0.10;;;;;;;7.59;100.00;99161.16;4998712;28;20037;-65
2024/02/12 03:33:58;;;;;;;0.20;0.03;;;;;;;7.61;100.00;99156.63;4992261;28;20034;-66
2024/02/12 03:36:25;;;;;;;0.40;0.10;;;;;;;7.62;100.00;99158.25;4997111;28;20405;-66
2024/02/12 03:38:52;;;;;;;0.38;0.10;;;;;;;7.65;100.00;99165.72;4997546;28;20046;-65
2024/02/12 03:41:18;;;;;;;2.53;0.10;;;;;;;7.67;100.00;99163.78;5003661;28;20034;-66
2024/02/12 03:43:44;;;;;;;0.30;0.03;;;;;;;7.70;100.00;99162.66;4993069;28;20116;-65
2024/02/12 03:46:19;;;;;;;0.65;0.08;;;;;;;7.66;100.00;99162.97;4997532;28;20054;-66
2024/02/12 03:59:59;;;;;;;0.17;0.00;;;;;;;7.71;100.00;99167.69;4927907;29;20091;-66
2024/02/12 04:02:27;;;;;;;0.38;0.10;;;;;;;7.73;100.00;99162.34;4931729;29;20031;-65
2024/02/12 04:04:53;;;;;;;0.20;0.00;;;;;;;7.72;100.00;99164.13;4930371;29;20058;-66
2024/02/12 04:07:21;;;;;;;1.60;0.00;;;;;;;7.66;100.00;99168.16;4932270;29;20039;-66
2024/02/12 04:09:47;;;;;;;0.47;0.00;;;;;;;7.66;100.00;99170.75;4941612;29;20047;-65
2024/02/12 04:12:12;;;;;;;0.30;0.08;;;;;;;7.68;100.00;99172.38;4932139;29;20564;-65
2024/02/12 04:14:42;;;;;;;0.15;0.08;;;;;;;7.64;100.00;99179.66;4939048;29;20545;-65
2024/02/12 04:17:14;;;;;;;0.45;0.10;;;;;;;7.66;100.00;99186.31;4930876;29;20159;-66
2024/02/12 04:19:40;;;;;;;0.85;0.10;;;;;;;7.68;100.00;99195.72;4928980;29;20070;-66
2024/02/12 04:22:09;;;;;;;0.20;0.10;;;;;;;7.69;100.00;99194.75;4932548;29;20027;-65
2024/02/12 04:24:42;;;;;;;0.20;0.10;;;;;;;7.69;100.00;99194.75;4931076;29;20044;-65
2024/02/12 04:27:10;;;;;;;0.25;0.00;;;;;;;7.70;100.00;99196.38;4930894;29;20032;-66
2024/02/12 04:29:39;;;;;;;0.10;0.00;;;;;;;7.68;100.00;99190.53;4938174;29;20534;-66
2024/02/12 04:32:11;;;;;;;0.10;0.00;;;;;;;7.68;100.00;99203.47;4981705;28;20073;-66
2024/02/12 04:34:37;;;;;;;0.40;0.03;;;;;;;7.68;100.00;99196.53;4990317;28;20058;-66
2024/02/12 04:37:03;;;;;;;1.23;0.03;;;;;;;7.63;100.00;99211.72;4988102;28;20037;-65
2024/02/12 04:39:28;;;;;;;0.15;0.00;;;;;;;7.62;100.00;99203.13;4991056;28;20407;-65
2024/02/12 04:41:54;;;;;;;0.40;0.10;;;;;;;7.63;100.00;99207.34;4990214;28;20033;-65
2024/02/12 04:44:20;;;;;;;0.40;0.20;;;;;;;7.66;100.00;99206.22;4990595;28;20030;-65
2024/02/12 04:46:46;;;;;;;0.90;0.55;;;;;;;7.65;100.00;99205.41;4981922;28;20042;-68
2024/02/12 04:49:11;;;;;;;0.55;0.17;;;;;;;7.66;100.00;99207.03;4991511;28;20034;-65
2024/02/12 04:51:37;;;;;;;1.08;0.30;;;;;;;7.64;100.00;99206.38;4990524;28;20427;-65
2024/02/12 04:54:03;;;;;;;2.72;0.20;;;;;;;7.66;100.00;99207.03;4988228;28;20028;-65
2024/02/12 04:56:28;;;;;;;0.68;0.20;;;;;;;7.64;100.00;99208.16;4976237;28;20183;-65
2024/02/12 04:58:56;;;;;;;0.77;0.20;;;;;;;7.62;100.00;99208.31;4990165;28;20034;-65
2024/02/12 05:01:22;;;;;;;0.80;0.30;;;;;;;7.60;100.00;99214.63;4994336;28;20031;-65
2024/02/12 05:03:50;;;;;;;0.85;0.38;;;;;;;7.60;100.00;99217.22;4998215;28;20470;-66
2024/02/12 05:06:16;;;;;;;2.38;0.30;;;;;;;7.61;100.00;99222.25;4990721;28;20037;-65
2024/02/12 05:08:42;;;;;;;1.40;0.28;;;;;;;7.61;100.00;99229.22;4994823;28;20030;-65
2024/02/12 05:11:08;;;;;;;4.75;0.20;;;;;;;7.61;100.00;99229.22;4990909;28;20038;-65
2024/02/12 05:13:35;;;;;;;6.07;0.20;;;;;;;7.60;100.00;99231.00;4996783;28;20038;-65
2024/02/12 05:16:02;;;;;;;1.00;0.10;;;;;;;7.58;100.00;99240.72;5003093;28;20034;-66
2024/02/12 05:23:57;;;;;;;1.08;0.30;;;;;;;7.59;100.00;99252.69;4984705;28;20096;-65
2024/02/12 05:26:23;;;;;;;1.02;0.25;;;;;;;7.58;100.00;99256.25;4994118;28;20034;-66
2024/02/12 05:28:50;;;;;;;1.38;0.20;;;;;;;7.55;100.00;99261.78;4997733;28;20457;-65
2024/02/12 05:31:16;;;;;;;1.52;0.25;;;;;;;7.54;100.00;99257.56;4988459;28;20038;-65
2024/02/12 05:33:41;;;;;;;4.47;0.47;;;;;;;7.46;100.00;99262.69;4988446;28;20034;-65
2024/02/12 05:36:09;;;;;;;3.72;0.20;;;;;;;7.43;100.00;99260.41;4989349;28;20093;-65
2024/02/12 05:38:39;;;;;;;0.55;0.20;;;;;;;7.44;100.00;99264.63;5005571;28;20086;-66
2024/02/12 05:41:04;;;;;;;4.22;0.35;;;;;;;7.46;100.00;99265.28;4995957;28;20045;-65
2024/02/12 05:43:30;;;;;;;0.73;0.30;;;;;;;7.51;100.00;99270.81;4991261;28;20042;-65
2024/02/12 05:45:55;;;;;;;2.00;0.50;;;;;;;7.54;100.00;99267.13;4992319;28;20053;-65
2024/02/12 05:48:21;;;;;;;0.40;0.17;;;;;;;7.50;100.00;99269.19;4985362;28;20116;-65
2024/02/12 05:50:48;;;;;;;5.18;0.28;;;;;;;7.52;100.00;99272.47;4991813;28;20034;-65
2024/02/12 05:53:14;;;;;;;0.80;0.25;;;;;;;7.52;100.00;99269.03;4993619;28;20025;-65
2024/02/12 05:55:40;;;;;;;0.88;0.32;;;;;;;7.53;100.00;99273.25;4990037;28;20046;-65
2024/02/12 05:58:09;;;;;;;7.97;0.50;;;;;;;7.55;100.00;99281.69;4991990;28;20031;-65
2024/02/12 06:00:35;;;;;;;2.17;0.40;;;;;;;7.56;100.00;99284.09;4978829;28;20890;-65
2024/02/12 06:03:01;;;;;;;1.98;0.32;;;;;;;7.55;100.00;99285.09;4998882;28;20033;-65
2024/02/12 06:05:26;;;;;;;2.67;0.70;;;;;;;7.55;100.00;99292.88;4995542;28;20451;-65
2024/02/12 06:07:52;;;;;;;3.38;1.00;;;;;;;7.56;100.00;99291.88;4995108;28;20038;-65
2024/02/12 06:10:18;;;;;;;1.70;0.70;;;;;;;7.55;100.00;99292.88;4992804;28;20030;-65
2024/02/12 06:12:44;;;;;;;1.48;0.60;;;;;;;7.53;100.00;99289.63;4988607;28;20033;-65
2024/02/12 06:15:10;;;;;;;2.03;0.40;;;;;;;7.55;100.00;99300.66;4987165;28;20034;-65
2024/02/12 06:17:36;;;;;;;0.80;0.30;;;;;;;7.51;100.00;99301.13;5001472;28;20103;-65
2024/02/12 06:20:05;;;;;;;1.42;0.65;;;;;;;7.48;100.00;99307.41;4985820;28;20483;-65
2024/02/12 06:22:34;;;;;;;3.17;0.68;;;;;;;7.44;100.00;99311.28;4996848;28;20113;-64
2024/02/12 06:25:04;;;;;;;0.47;0.30;;;;;;;7.42;100.00;99323.56;4992527;28;20030;-65
2024/02/12 06:27:29;;;;;;;1.48;0.40;;;;;;;7.49;100.00;99323.78;4996048;28;20034;-65
2024/02/12 06:29:55;;;;;;;1.05;0.20;;;;;;;7.52;100.00;99329.47;4980927;28;20391;-65
2024/02/12 06:32:20;;;;;;;0.70;0.20;;;;;;;7.56;100.00;99335.94;4999088;28;20042;-65
2024/02/12 06:34:46;;;;;;;0.98;0.20;;;;;;;7.50;100.00;99335.78;4992240;28;20117;-65
2024/02/12 06:37:12;;;;;;;0.25;0.10;;;;;;;7.49;100.00;99337.56;4991281;28;20506;-65
2024/02/12 06:39:39;;;;;;;0.70;0.20;;;;;;;7.51;100.00;99343.41;4995582;28;20030;-65
2024/02/12 06:42:05;;;;;;;0.35;0.10;;;;;;;7.51;100.00;99340.81;4982806;28;20422;-65
2024/02/12 06:44:32;;;;;;;1.63;0.10;;;;;;;7.55;100.00;99349.09;4992699;28;20057;-65
2024/02/12 06:46:58;;;;;;;2.78;0.25;;;;;;;7.65;100.00;99353.19;4998227;28;20037;-65
2024/02/12 06:49:24;;;;;;;3.03;0.43;;;;;;;7.74;100.00;99358.44;5001488;28;20134;-65
2024/02/12 06:51:49;;;;;;;2.38;0.30;;;;;;;7.75;100.00;99363.47;4999333;28;20178;-65
2024/02/12 06:54:15;;;;;;;1.80;0.40;;;;;;;7.81;100.00;99372.41;4981108;28;20078;-65
2024/02/12 06:56:41;;;;;;;0.93;0.30;;;;;;;7.81;100.00;99370.63;4990835;28;20052;-65
2024/02/12 06:59:07;;;;;;;0.90;0.20;;;;;;;7.81;100.00;99369.81;4985003;28;20042;-65
2024/02/12 07:01:33;;;;;;;0.55;0.17;;;;;;;7.81;100.00;99377.59;4982654;28;20035;-65
2024/02/12 07:03:59;;;;;;;0.35;0.10;;;;;;;7.82;100.00;99382.63;4988483;28;20034;-65
2024/02/12 07:06:24;;;;;;;0.93;0.25;;;;;;;7.90;100.00;99387.06;4992237;28;20069;-65
2024/02/12 07:08:50;;;;;;;0.55;0.10;;;;;;;7.93;100.00;99379.78;4993888;28;20026;-65
2024/02/12 07:11:15;;;;;;;4.30;0.25;;;;;;;7.85;100.00;99382.31;4988108;28;20061;-65
2024/02/12 07:13:41;;;;;;;0.30;0.20;;;;;;;7.73;100.00;99388.72;4997849;28;20034;-65
2024/02/12 07:16:08;;;;;;;0.50;0.17;;;;;;;7.74;100.00;99392.13;5009100;28;20048;-65
2024/02/12 07:18:33;;;;;;;0.50;0.10;;;;;;;7.74;100.00;99392.13;5002613;28;20037;-64
2024/02/12 07:20:59;;;;;;;0.73;0.10;;;;;;;7.73;100.00;99388.72;4989011;28;20465;-65
2024/02/12 07:23:25;;;;;;;0.90;0.13;;;;;;;7.78;100.00;99390.88;4982886;28;20023;-65
2024/02/12 07:25:50;;;;;;;3.28;0.45;;;;;;;7.78;100.00;99398.66;4983985;28;20478;-65
2024/02/12 07:28:17;;;;;;;0.60;0.17;;;;;;;7.80;100.00;99401.91;4986620;28;20346;-65
2024/02/12 07:30:45;;;;;;;0.65;0.20;;;;;;;7.94;100.00;99406.53;4994260;28;20121;-64
2024/02/12 07:33:10;;;;;;;3.03;0.10;;;;;;;8.11;100.00;99412.59;4988057;28;20039;-65
2024/02/12 07:35:36;;;;;;;3.42;0.20;;;;;;;8.20;100.00;99417.69;4990953;28;20375;-65
2024/02/12 07:38:02;;;;;;;0.43;0.10;;;;;;;8.24;100.00;99413.00;4992561;28;20078;-65
2024/02/12 07:40:32;;;;;;;1.27;0.20;;;;;;;8.15;100.00;99419.94;4999360;28;20036;-65
2024/02/12 07:42:59;;;;;;;0.52;0.13;;;;;;;8.10;100.00;99422.16;4996021;28;20064;-65
2024/02/12 07:45:27;;;;;;;0.90;0.20;;;;;;;7.99;100.00;99425.03;4991186;28;20071;-65
2024/02/12 07:47:53;;;;;;;0.77;0.20;;;;;;;7.95;100.00;99423.72;4994678;28;20045;-64
2024/02/12 07:50:19;;;;;;;1.67;0.30;;;;;;;7.95;100.00;99429.72;4996561;28;20033;-64
2024/02/12 07:52:44;;;;;;;2.42;0.20;;;;;;;7.96;100.00;99440.91;5005000;28;20168;-65
2024/02/12 07:55:11;;;;;;;1.10;0.20;;;;;;;7.93;100.00;99436.03;4989604;28;20496;-65
2024/02/12 07:57:37;;;;;;;1.17;0.20;;;;;;;7.95;100.00;99436.69;4988071;28;20031;-65
2024/02/12 08:00:07;;;;;;;0.43;0.10;;;;;;;7.95;100.00;99445.28;4989945;28;20045;-64
2024/02/12 08:02:34;;;;;;;1.55;0.20;;;;;;;7.96;100.00;99446.09;4987474;28;20517;-64
2024/02/12 08:05:00;;;;;;;0.30;0.10;;;;;;;8.01;100.00;99454.25;4994238;28;20030;-65
2024/02/12 08:07:25;;;;;;;1.65;0.10;;;;;;;8.04;100.00;99458.28;4981898;28;20023;-65
2024/02/12 08:09:51;;;;;;;2.85;0.20;;;;;;;8.08;100.00;99465.59;4995695;28;20497;-64
2024/02/12 08:12:19;;;;;;;5.90;0.20;;;;;;;8.04;100.00;99461.69;5003620;28;20160;-65
2024/02/12 08:14:45;;;;;;;0.70;0.10;;;;;;;8.04;100.00;99461.69;5003964;28;20038;-64
2024/02/12 08:17:10;;;;;;;1.67;0.22;;;;;;;8.10;100.00;99462.88;5003349;28;20536;-65
2024/02/12 08:19:39;;;;;;;1.13;0.40;;;;;;;8.10;100.00;99463.69;4988438;28;20073;-64
2024/02/12 08:22:04;;;;;;;3.20;0.38;;;;;;;8.14;100.00;99467.59;4988716;28;20031;-64
2024/02/12 08:24:30;;;;;;;2.17;0.20;;;;;;;8.17;100.00;99467.28;4985372;28;20038;-64
2024/02/12 08:26:55;;;;;;;0.52;0.17;;;;;;;8.15;100.00;99466.63;4985237;28;20043;-64
2024/02/12 08:29:21;;;;;;;0.68;0.10;;;;;;;8.19;100.00;99470.53;4992183;28;20057;-66
2024/02/12 08:31:46;;;;;;;0.38;0.10;;;;;;;8.24;100.00;99470.09;4986301;28;20475;-64
2024/02/12 08:34:13;;;;;;;0.20;0.10;;;;;;;8.25;100.00;99475.13;4994737;28;20053;-65
2024/02/12 08:36:44;;;;;;;0.40;0.10;;;;;;;8.25;100.00;99482.91;4986331;28;20034;-65
2024/02/12 08:39:13;;;;;;;1.10;0.20;;;;;;;8.23;100.00;99484.84;4984108;28;20144;-64
2024/02/12 08:41:40;;;;;;;0.47;0.30;;;;;;;8.26;100.00;99481.13;4984883;28;20377;-65
2024/02/12 08:44:07;;;;;;;0.80;0.30;;;;;;;8.30;100.00;99487.66;4995919;28;20120;-65
2024/02/12 08:46:33;;;;;;;0.40;0.20;;;;;;;8.32;100.00;99496.94;4989046;28;20134;-65
2024/02/12 08:48:59;;;;;;;0.60;0.30;;;;;;;8.36;100.00;99491.44;4988517;28;20448;-65
2024/02/12 08:51:26;;;;;;;0.60;0.17;;;;;;;8.41;100.00;99492.63;4990082;28;20124;-65
2024/02/12 08:53:52;;;;;;;3.92;0.30;;;;;;;8.45;100.00;99493.13;4983955;28;20030;-65
2024/02/12 08:56:18;;;;;;;2.88;0.25;;;;;;;8.52;100.00;99494.91;5005752;28;20485;-65
2024/02/12 08:58:44;;;;;;;0.35;0.10;;;;;;;8.53;100.00;99499.13;4990936;28;20042;-65
2024/02/12 09:01:11;;;;;;;2.33;0.40;;;;;;;8.54;100.00;99502.56;4983569;28;20391;-65
2024/02/12 09:03:43;;;;;;;3.65;0.30;;;;;;;8.55;100.00;99520.56;4991806;28;20058;-65
2024/02/12 09:06:12;;;;;;;1.95;0.30;;;;;;;8.71;100.00;99522.44;4994329;28;20625;-65
2024/02/12 09:08:40;;;;;;;4.90;0.40;;;;;;;8.84;100.00;99520.22;4994504;28;20470;-65
2024/02/12 09:11:05;;;;;;;0.60;0.35;;;;;;;8.80;100.00;99518.91;4989743;28;20038;-65
2024/02/12 09:13:31;;;;;;;3.25;0.30;;;;;;;8.83;100.00;99523.81;4995205;28;20034;-65
2024/02/12 09:15:57;;;;;;;0.75;0.20;;;;;;;8.93;100.00;99521.91;4996666;28;20037;-65
2024/02/12 09:18:26;;;;;;;5.05;0.20;;;;;;;9.00;100.00;99524.66;4988423;28;20026;-65
2024/02/12 09:20:54;;;;;;;1.13;0.20;;;;;;;9.06;100.00;99533.63;5002742;28;20505;-65
2024/02/12 09:23:21;;;;;;;1.45;0.20;;;;;;;9.17;100.00;99535.94;5000388;28;20047;-65
2024/02/12 09:25:49;;;;;;;0.40;0.10;;;;;;;9.08;100.00;99529.06;4985763;28;20065;-65
2024/02/12 09:28:16;;;;;;;1.38;0.20;;;;;;;9.06;100.00;99534.44;4990126;28;20042;-65
2024/02/12 09:30:45;;;;;;;1.98;0.20;;;;;;;9.06;100.00;99528.41;4987495;28;20053;-65
2024/02/12 09:33:15;;;;;;;2.25;0.38;;;;;;;9.05;100.00;99527.59;4980664;28;20034;-65
2024/02/12 09:35:44;;;;;;;0.50;0.20;;;;;;;9.15;100.00;99543.06;4993771;28;20034;-65
2024/02/12 09:38:10;;;;;;;0.70;0.25;;;;;;;9.30;100.00;99539.72;4991361;28;20058;-65
2024/02/12 09:40:36;;;;;;;1.08;0.20;;;;;;;9.44;100.00;99542.66;4984993;28;20038;-65
2024/02/12 09:43:02;;;;;;;0.45;0.10;;;;;;;9.35;100.00;99535.81;4989515;28;20047;-65
2024/02/12 09:45:31;;;;;;;0.70;0.10;;;;;;;9.27;100.00;99531.41;4986013;28;20486;-66
2024/02/12 09:48:00;;;;;;;0.57;0.20;;;;;;;9.49;100.00;99541.19;4994220;28;20030;-66
2024/02/12 09:50:29;;;;;;;0.98;0.20;;;;;;;9.56;100.00;99541.38;4989125;28;20046;-67
2024/02/12 09:52:58;;;;;;;1.55;0.73;;;;;;;9.59;100.00;99552.25;4987849;28;20069;-65
2024/02/12 09:55:25;;;;;;;0.85;0.30;;;;;;;9.64;100.00;99550.00;4976377;28;20631;-67
2024/02/12 09:57:51;;;;;;;1.60;0.20;;;;;;;9.75;100.00;99550.66;4982262;28;20351;-66
2024/02/12 10:00:19;;;;;;;0.73;0.30;;;;;;;9.81;100.00;99550.84;4983654;28;20038;-66
2024/02/12 10:02:46;;;;;;;2.38;0.20;;;;;;;9.79;100.00;99558.00;4964535;28;20046;-66
2024/02/12 10:05:20;;;;;;;0.73;0.20;;;;;;;9.62;100.00;99557.16;4987311;28;20379;-65
2024/02/12 10:07:46;;;;;;;1.90;0.13;;;;;;;9.77;100.00;99559.13;4990425;28;20029;-65
2024/02/12 10:10:12;;;;;;;0.98;0.22;;;;;;;9.79;100.00;99557.19;4996786;28;20107;-66
2024/02/12 10:12:37;;;;;;;3.22;0.30;;;;;;;9.78;100.00;99560.75;4990315;28;20034;-65
2024/02/12 10:15:06;;;;;;;1.00;0.20;;;;;;;9.74;100.00;99565.47;4988821;28;20057;-66
2024/02/12 10:17:32;;;;;;;0.85;0.13;;;;;;;9.65;100.00;99567.22;4988834;28;20494;-66
2024/02/12 10:19:57;;;;;;;1.55;0.17;;;;;;;9.66;100.00;99557.66;4983795;28;20061;-66
2024/02/12 10:22:26;;;;;;;0.22;0.10;;;;;;;9.67;100.00;99563.66;4985090;28;20097;-66
2024/02/12 10:24:51;;;;;;;0.52;0.20;;;;;;;9.72;100.00;99564.81;4988951;28;20086;-66
2024/02/12 10:27:22;;;;;;;0.38;0.10;;;;;;;9.81;100.00;99569.06;4990962;28;20033;-66
2024/02/12 10:30:01;;;;;;;0.30;0.10;;;;;;;9.81;100.00;99566.44;4979752;28;20046;-66
2024/02/12 10:32:31;;;;;;;1.80;0.10;;;;;;;9.96;100.00;99564.00;4981792;28;20066;-66
2024/02/12 10:35:02;;;;;;;0.73;0.30;;;;;;;10.02;100.00;99565.13;4983864;28;20343;-66
2024/02/12 10:37:27;;;;;;;0.30;0.10;;;;;;;10.08;100.00;99561.88;4985881;28;20085;-66
2024/02/12 10:39:54;;;;;;;1.58;0.10;;;;;;;10.17;100.00;99559.13;4963897;28;21069;-66
2024/02/12 10:42:25;;;;;;;0.50;0.20;;;;;;;10.22;100.00;99558.66;4983182;28;20030;-65
2024/02/12 10:44:51;;;;;;;0.80;0.20;;;;;;;10.30;100.00;99556.88;4984791;28;20046;-65
2024/02/12 10:47:17;;;;;;;0.95;0.20;;;;;;;10.21;100.00;99557.03;4984629;28;20121;-65
2024/02/12 10:49:47;;;;;;;2.30;0.10;;;;;;;10.30;100.00;99554.28;4985929;28;20130;-65
2024/02/12 10:52:15;;;;;;;0.68;0.20;;;;;;;10.34;100.00;99561.75;4988652;28;20505;-66
2024/02/12 10:54:42;;;;;;;1.98;0.43;;;;;;;10.45;100.00;99550.97;4987214;28;20037;-65
2024/02/12 10:57:08;;;;;;;3.78;0.70;;;;;;;10.56;100.00;99543.63;4983991;28;20544;-65
2024/02/12 10:59:34;;;;;;;2.60;0.47;;;;;;;10.66;100.00;99548.66;4993126;28;20037;-67
2024/02/12 11:02:11;;;;;;;1.58;0.40;;;;;;;10.73;100.00;99544.41;4989441;28;20022;-66
2024/02/12 11:04:40;;;;;;;1.30;0.43;;;;;;;10.76;100.00;99541.47;4989977;28;20539;-65
2024/02/12 11:07:18;;;;;;;1.10;0.43;;;;;;;10.85;100.00;99537.84;4980051;28;20045;-65
2024/02/12 11:09:56;;;;;;;2.35;0.70;;;;;;;10.88;100.00;99540.09;4981990;28;20030;-66
2024/02/12 11:12:22;;;;;;;2.35;0.50;;;;;;;10.96;100.00;99526.22;4994837;28;20034;-66
2024/02/12 11:14:50;;;;;;;1.50;0.50;;;;;;;11.01;100.00;99531.75;4983242;28;20034;-66
2024/02/12 11:17:23;;;;;;;1.38;0.57;;;;;;;10.98;100.00;99530.28;4989541;28;20482;-65
2024/02/12 11:19:52;;;;;;;1.67;0.52;;;;;;;11.10;100.00;99532.53;4980536;28;20068;-66
2024/02/12 11:22:28;;;;;;;2.22;0.80;;;;;;;11.14;100.00;99524.19;4986753;28;20038;-65
2024/02/12 11:25:03;;;;;;;2.75;0.50;;;;;;;11.20;100.00;99527.91;4976946;28;20390;-66
2024/02/12 11:27:41;;;;;;;1.05;0.40;;;;;;;11.15;100.00;99525.00;4986938;28;20034;-65
2024/02/12 11:30:09;;;;;;;0.98;0.40;;;;;;;11.08;100.00;99524.06;4979575;28;20046;-65
2024/02/12 11:32:35;;;;;;;1.77;0.65;;;;;;;11.16;100.00;99511.00;4977124;28;20065;-66
2024/02/12 11:35:12;;;;;;;1.88;0.50;;;;;;;11.22;100.00;99508.50;4987796;28;20073;-65
2024/02/12 11:37:55;;;;;;;1.30;0.50;;;;;;;11.26;100.00;99507.19;4985043;28;20054;-65
2024/02/12 11:40:20;;;;;;;1.50;0.45;;;;;;;11.26;100.00;99509.78;4987255;28;20026;-66
2024/02/12 11:42:49;;;;;;;3.25;0.60;;;;;;;11.33;100.00;99512.53;4981856;28;22154;-65
2024/02/12 11:45:18;;;;;;;1.77;0.30;;;;;;;11.37;100.00;99505.97;4977101;28;20092;-65
2024/02/12 11:47:47;;;;;;;1.95;0.25;;;;;;;11.39;100.00;99517.03;4977367;28;20659;-65